createdAt,value
2022-09-30T00:02:24.758Z,5.87
2022-09-30T00:07:26.918Z,6.87
2022-09-30T00:12:29.161Z,6.37
2022-09-30T00:17:31.348Z,6.37
2022-09-30T00:22:33.572Z,6.77
2022-09-30T00:27:35.755Z,5.93
2022-09-30T00:32:37.932Z,6.23
2022-09-30T00:37:40.242Z,6.80
2022-09-30T00:42:42.677Z,6.67
2022-09-30T00:47:54.428Z,6.63
2022-09-30T00:53:06.089Z,6.60
2022-09-30T00:58:10.304Z,6.00
2022-09-30T01:03:12.482Z,5.67
2022-09-30T01:08:14.768Z,6.87
2022-09-30T01:13:18.534Z,5.53
2022-09-30T01:18:52.274Z,6.37
2022-09-30T01:23:58.182Z,6.27
2022-09-30T01:29:09.477Z,5.83
2022-09-30T01:34:39.683Z,4.93
2022-09-30T01:45:05.125Z,5.97
2022-09-30T01:50:21.746Z,6.07
2022-09-30T01:55:36.829Z,6.57
2022-09-30T02:00:42.447Z,6.37
2022-09-30T02:05:51.293Z,6.10
2022-09-30T02:10:58.747Z,5.85
2022-09-30T02:16:13.081Z,5.10
2022-09-30T02:21:20.246Z,4.83
2022-09-30T02:26:25.401Z,6.10
2022-09-30T02:31:28.902Z,4.47
2022-09-30T02:36:49.579Z,5.00
2022-09-30T02:41:55.928Z,5.27
2022-09-30T02:47:31.899Z,5.20
2022-09-30T02:52:46.086Z,6.27
2022-09-30T02:58:00.657Z,5.60
2022-09-30T03:03:07.957Z,5.73
2022-09-30T03:08:11.183Z,5.47
2022-09-30T03:13:40.048Z,5.53
2022-09-30T03:18:54.230Z,6.13
2022-09-30T03:24:33.406Z,5.83
2022-09-30T03:30:06.360Z,6.57
2022-09-30T03:35:47.084Z,5.60
2022-09-30T03:41:10.896Z,6.03
2022-09-30T03:46:26.738Z,5.67
2022-09-30T03:51:31.722Z,4.57
2022-09-30T03:56:33.935Z,4.47
2022-09-30T04:01:52.079Z,5.33
2022-09-30T04:07:01.510Z,5.40
2022-09-30T04:12:04.874Z,4.77
2022-09-30T04:17:07.291Z,4.87
2022-09-30T04:22:09.971Z,5.07
2022-09-30T04:27:12.108Z,4.73
2022-09-30T04:32:14.217Z,6.07
2022-09-30T04:37:16.467Z,5.73
2022-09-30T04:42:21.396Z,4.43
2022-09-30T04:47:25.418Z,5.00
2022-09-30T04:52:27.905Z,5.77
2022-09-30T04:57:29.992Z,5.40
2022-09-30T05:02:32.344Z,5.20
2022-09-30T05:07:34.488Z,5.53
2022-09-30T05:12:36.960Z,6.10
2022-09-30T05:17:39.113Z,5.27
2022-09-30T05:22:41.286Z,5.73
2022-09-30T05:27:43.393Z,5.77
2022-09-30T05:32:46.269Z,6.67
2022-09-30T05:37:48.869Z,5.50
2022-09-30T05:42:53.932Z,5.47
2022-09-30T05:47:56.580Z,5.77
2022-09-30T05:52:58.817Z,6.27
2022-09-30T05:58:00.931Z,6.13
2022-09-30T06:03:03.084Z,6.20
2022-09-30T06:08:07.360Z,5.90
2022-09-30T06:13:09.803Z,6.20
2022-09-30T06:18:17.595Z,5.77
2022-09-30T06:23:20.537Z,6.47
2022-09-30T06:28:23.158Z,7.33
2022-09-30T06:33:25.441Z,5.87
2022-09-30T06:38:28.933Z,5.70
2022-09-30T06:43:39.724Z,6.23
2022-09-30T06:48:46.809Z,5.83
2022-09-30T06:53:57.976Z,6.97
2022-09-30T06:59:00.199Z,5.87
2022-09-30T07:04:08.231Z,6.80
2022-09-30T07:09:11.537Z,6.07
2022-09-30T07:14:13.852Z,5.40
2022-09-30T07:19:18.060Z,6.43
2022-09-30T07:24:20.375Z,5.27
2022-09-30T07:29:22.822Z,7.23
2022-09-30T07:34:25.443Z,5.90
2022-09-30T07:39:27.715Z,6.10
2022-09-30T07:44:30.555Z,5.83
2022-09-30T07:49:32.997Z,6.70
2022-09-30T07:54:40.431Z,6.40
2022-09-30T07:59:44.287Z,6.72
2022-09-30T08:04:47.050Z,6.07
2022-09-30T08:09:52.139Z,6.07
2022-09-30T08:14:54.485Z,6.87
2022-09-30T08:19:56.690Z,7.50
2022-09-30T08:24:58.861Z,8.27
2022-09-30T08:30:04.615Z,7.03
2022-09-30T08:35:07.846Z,8.53
2022-09-30T08:40:23.305Z,7.87
2022-09-30T08:45:36.668Z,8.03
2022-09-30T08:51:05.144Z,8.80
2022-09-30T08:56:07.674Z,7.50
2022-09-30T09:01:20.252Z,7.87
2022-09-30T09:06:28.523Z,8.50
2022-09-30T09:12:03.368Z,8.33
2022-09-30T09:17:17.684Z,8.77
2022-09-30T09:22:24.595Z,9.67
2022-09-30T09:32:57.293Z,9.23
2022-09-30T09:38:27.322Z,8.60
2022-09-30T09:43:46.379Z,7.87
2022-09-30T09:48:49.835Z,8.20
2022-09-30T09:53:54.084Z,8.03
2022-09-30T09:59:10.974Z,7.73
2022-09-30T10:04:27.475Z,7.27
2022-09-30T10:09:38.269Z,9.10
2022-09-30T10:14:58.661Z,9.90
2022-09-30T10:20:16.116Z,7.90
2022-09-30T10:25:22.241Z,8.57
2022-09-30T10:30:57.829Z,8.60
2022-09-30T10:36:13.987Z,7.67
2022-09-30T10:41:23.495Z,8.30
2022-09-30T10:46:36.001Z,8.03
2022-09-30T10:51:38.855Z,8.53
2022-09-30T10:56:44.493Z,9.03
2022-09-30T11:02:11.419Z,8.43
2022-09-30T11:07:45.024Z,7.50
2022-09-30T11:13:00.167Z,7.80
2022-09-30T11:18:11.419Z,9.30
2022-09-30T11:23:28.206Z,9.13
2022-09-30T11:28:36.897Z,8.37
2022-09-30T11:33:48.220Z,9.32
2022-09-30T11:39:29.564Z,8.23
2022-09-30T11:44:37.129Z,8.83
2022-09-30T11:49:48.456Z,8.20
2022-09-30T11:54:59.738Z,7.73
2022-09-30T12:00:08.819Z,8.30
2022-09-30T12:05:23.390Z,7.53
2022-09-30T12:10:36.243Z,7.40
2022-09-30T12:15:42.122Z,8.57
2022-09-30T12:21:17.045Z,8.20
2022-09-30T12:26:19.418Z,8.93
2022-09-30T12:31:46.558Z,8.07
2022-09-30T12:37:13.730Z,7.80
2022-09-30T12:42:58.781Z,7.73
2022-09-30T12:48:05.394Z,8.20
2022-09-30T12:53:22.687Z,8.87
2022-09-30T12:58:31.137Z,8.07
2022-09-30T13:04:09.215Z,9.15
2022-09-30T13:09:17.482Z,8.50
2022-09-30T13:14:27.058Z,9.07
2022-09-30T13:19:41.208Z,8.93
2022-09-30T13:24:59.366Z,10.60
2022-09-30T13:30:22.624Z,8.82
2022-09-30T13:35:43.601Z,9.17
2022-09-30T13:41:19.072Z,10.30
2022-09-30T13:46:21.291Z,8.80
2022-09-30T13:51:26.315Z,9.90
2022-09-30T13:56:34.243Z,9.77
2022-09-30T14:01:37.833Z,9.50
2022-09-30T14:07:11.529Z,11.00
2022-09-30T14:12:32.122Z,11.33
2022-09-30T14:18:17.739Z,10.90
2022-09-30T14:23:22.173Z,11.93
2022-09-30T14:28:48.423Z,11.77
2022-09-30T14:33:50.950Z,10.67
2022-09-30T14:38:58.978Z,10.73
2022-09-30T14:44:08.412Z,11.47
2022-09-30T14:49:14.960Z,10.30
2022-09-30T14:54:20.154Z,10.70
2022-09-30T14:59:27.252Z,11.23
2022-09-30T15:04:34.242Z,10.60
2022-09-30T15:09:39.615Z,11.40
2022-09-30T15:14:53.043Z,11.73
2022-09-30T15:19:57.190Z,11.50
2022-09-30T15:24:59.993Z,13.90
2022-09-30T15:30:05.708Z,12.63
2022-09-30T15:35:14.888Z,12.93
2022-09-30T15:40:38.602Z,12.17
2022-09-30T15:45:43.578Z,12.57
2022-09-30T15:50:50.515Z,11.87
2022-09-30T15:56:00.254Z,12.57
2022-09-30T16:01:27.030Z,10.83
2022-09-30T16:06:43.600Z,10.33
2022-09-30T16:12:02.080Z,13.50
2022-09-30T16:17:05.759Z,11.63
2022-09-30T16:22:48.570Z,12.33
2022-09-30T16:28:12.617Z,11.33
2022-09-30T16:33:16.071Z,10.60
2022-09-30T16:38:18.873Z,12.93
2022-09-30T16:43:21.177Z,13.20
2022-09-30T16:48:23.891Z,13.60
2022-09-30T16:53:26.169Z,14.93
2022-09-30T16:58:28.624Z,15.77
2022-09-30T17:03:32.603Z,12.87
2022-09-30T17:08:34.858Z,14.20
2022-09-30T17:13:37.732Z,12.83
2022-09-30T17:18:40.620Z,13.47
2022-09-30T17:23:42.973Z,12.87
2022-09-30T17:28:45.447Z,13.30
2022-09-30T17:33:49.870Z,12.03
2022-09-30T17:38:55.256Z,12.37
2022-09-30T17:44:02.773Z,11.83
2022-09-30T17:49:06.427Z,13.97
2022-09-30T17:54:10.833Z,12.53
2022-09-30T17:59:13.099Z,15.07
2022-09-30T18:04:15.354Z,13.47
2022-09-30T18:09:17.693Z,13.20
2022-09-30T18:14:23.012Z,12.27
2022-09-30T18:19:25.548Z,13.30
2022-09-30T18:24:46.127Z,13.70
2022-09-30T18:29:49.285Z,13.37
2022-09-30T18:34:51.577Z,11.90
2022-09-30T18:39:53.977Z,11.77
2022-09-30T18:44:56.551Z,10.93
2022-09-30T18:49:59.311Z,11.53
2022-09-30T18:55:01.786Z,11.33
2022-09-30T19:00:09.940Z,11.83
2022-09-30T19:05:15.321Z,11.77
2022-09-30T19:10:19.027Z,12.47
2022-09-30T19:15:23.540Z,11.40
2022-09-30T19:20:29.756Z,10.17
2022-09-30T19:25:35.012Z,10.97
2022-09-30T19:30:42.225Z,10.33
2022-09-30T19:35:44.374Z,11.07
2022-09-30T19:40:55.219Z,10.40
2022-09-30T19:45:59.491Z,11.20
2022-09-30T19:51:10.924Z,11.80
2022-09-30T19:56:17.859Z,11.10
2022-09-30T20:01:22.451Z,11.27
2022-09-30T20:06:28.332Z,11.23
2022-09-30T20:11:36.200Z,11.10
2022-09-30T20:16:42.021Z,11.90
2022-09-30T20:21:44.982Z,11.67
2022-09-30T20:26:47.767Z,12.97
2022-09-30T20:31:50.829Z,13.07
2022-09-30T20:36:53.161Z,11.97
2022-09-30T20:41:56.052Z,12.50
2022-09-30T20:46:58.623Z,11.80
2022-09-30T20:52:04.124Z,12.87
2022-09-30T20:57:07.796Z,13.00
2022-09-30T21:02:14.267Z,12.77
2022-09-30T21:12:23.110Z,11.50
2022-09-30T21:17:25.267Z,14.50
2022-09-30T21:22:29.261Z,14.27
2022-09-30T21:27:32.290Z,13.93
2022-09-30T21:32:35.176Z,13.47
2022-09-30T21:37:37.534Z,12.80
2022-09-30T21:42:39.832Z,13.17
2022-09-30T21:47:44.855Z,13.50
2022-09-30T21:52:47.672Z,12.17
2022-09-30T21:57:49.977Z,11.33
2022-09-30T22:02:52.194Z,11.60
2022-09-30T22:07:55.713Z,12.30
2022-09-30T22:12:57.999Z,10.60
2022-09-30T22:18:00.713Z,12.17
2022-09-30T22:23:02.894Z,11.83
2022-09-30T22:28:05.630Z,11.37
2022-09-30T22:33:26.227Z,10.87
2022-09-30T22:38:28.511Z,11.73
2022-09-30T22:43:32.936Z,10.00
2022-09-30T22:48:35.847Z,10.50
2022-09-30T22:53:38.883Z,10.33
2022-09-30T22:58:41.022Z,10.43
2022-09-30T23:03:45.944Z,11.97
2022-09-30T23:08:48.185Z,10.60
2022-09-30T23:13:53.493Z,11.27
2022-09-30T23:18:59.173Z,10.40
2022-09-30T23:24:02.176Z,10.63
2022-09-30T23:29:06.919Z,11.90
2022-09-30T23:34:09.427Z,10.93
2022-09-30T23:39:20.476Z,10.50
2022-09-30T23:44:24.663Z,12.40
2022-09-30T23:49:26.784Z,11.03
2022-09-30T23:54:29.158Z,12.20
2022-09-30T23:59:32.071Z,12.67
